Time;durP1;ratioP1;P1;durP2;ratioP2;P2;SDS_P1;SDS_P2;PMS_P1;PMS_P2;Temp;Humidity;BMP_temperature;BMP_pressure;BME280_temperature;BME280_humidity;BME280_pressure;Samples;Min_cycle;Max_cycle;Signal;HPM_P1;HPM_P2
2023/10/03 00:00:13;;;;;;;;;10.00;10.00;;;;;26.58;55.32;100541.44;6182383;23;44853;-71
2023/10/03 00:02:38;;;;;;;;;12.67;9.00;;;;;26.49;56.10;100548.25;6187145;22;45127;-71
2023/10/03 00:05:07;;;;;;;;;16.33;13.67;;;;;26.49;55.83;100540.94;6212649;22;45337;-71
2023/10/03 00:07:33;;;;;;;;;10.33;9.33;;;;;26.45;56.20;100547.53;6185484;22;44788;-72
2023/10/03 00:09:59;;;;;;;;;14.00;12.33;;;;;26.40;56.29;100549.66;6212300;22;44817;-70
2023/10/03 00:12:24;;;;;;;;;14.25;11.25;;;;;26.31;56.39;100542.84;6211940;22;45453;-70
2023/10/03 00:14:50;;;;;;;;;11.00;11.00;;;;;26.35;56.56;100549.88;6212534;22;45279;-72
2023/10/03 00:17:16;;;;;;;;;13.33;10.67;;;;;26.23;57.14;100561.47;6212437;22;44994;-70
2023/10/03 00:19:41;;;;;;;;;12.00;9.00;;;;;26.24;56.89;100556.88;6212283;22;45487;-71
2023/10/03 00:22:07;;;;;;;;;10.00;10.00;;;;;26.23;57.08;100563.31;6212183;22;45376;-70
2023/10/03 00:24:32;;;;;;;;;9.50;9.50;;;;;26.14;56.80;100553.78;6212178;22;44744;-70
2023/10/03 00:26:59;;;;;;;;;9.00;9.00;;;;;26.11;57.14;100554.81;6212325;22;44691;-71
2023/10/03 00:29:29;;;;;;;;;10.50;9.25;;;;;26.05;57.51;100544.25;6210410;22;44832;-70
2023/10/03 00:31:54;;;;;;;;;9.67;9.33;;;;;26.10;57.75;100569.41;6183527;22;47477;-70
2023/10/03 00:34:23;;;;;;;;;9.67;9.67;;;;;26.06;57.85;100565.09;6212313;22;44838;-73
2023/10/03 00:36:50;;;;;;;;;12.00;12.00;;;;;26.10;57.64;100569.41;6185028;22;45516;-72
2023/10/03 00:39:15;;;;;;;;;13.00;13.00;;;;;26.08;57.66;100573.19;6184971;22;44816;-71
2023/10/03 00:41:40;;;;;;;;;10.67;10.67;;;;;26.03;58.05;100573.44;6212427;22;45384;-71
2023/10/03 00:44:06;;;;;;;;;14.33;12.33;;;;;26.03;57.99;100581.59;6212376;22;44751;-71
2023/10/03 00:46:33;;;;;;;;;12.00;12.00;;;;;26.00;58.04;100579.06;6213117;22;45348;-72
2023/10/03 00:49:05;;;;;;;;;14.00;13.00;;;;;25.96;58.30;100593.81;6213361;22;44883;-71
2023/10/03 00:51:31;;;;;;;;;12.33;10.33;;;;;25.94;58.29;100601.19;6212304;22;45372;-72
2023/10/03 00:53:58;;;;;;;;;13.00;12.00;;;;;25.94;58.48;100584.81;6212285;22;45667;-72
2023/10/03 00:56:24;;;;;;;;;12.00;12.00;;;;;25.92;58.51;100603.97;6212158;22;45378;-71
2023/10/03 00:58:51;;;;;;;;;9.00;9.00;;;;;25.92;58.60;100600.38;6213073;22;44779;-72
2023/10/03 01:01:18;;;;;;;;;15.33;13.00;;;;;25.92;58.67;100605.81;6184422;22;47283;-73
2023/10/03 01:03:47;;;;;;;;;14.67;12.00;;;;;25.93;59.58;100599.41;6207611;22;45366;-73
2023/10/03 01:06:13;;;;;;;;;13.67;13.67;;;;;25.81;59.77;100606.31;6210786;22;45473;-74
2023/10/03 01:08:47;;;;;;;;;10.33;10.33;;;;;26.01;59.73;100610.78;6211219;22;45381;-73
2023/10/03 01:11:17;;;;;;;;;14.00;13.00;;;;;25.87;59.86;100611.47;6210518;22;46092;-73
2023/10/03 01:13:56;;;;;;;;;14.33;12.33;;;;;26.02;60.08;100603.50;6211152;22;45411;-73
2023/10/03 01:16:29;;;;;;;;;13.33;12.00;;;;;25.77;60.59;100610.16;6211231;22;45487;-73
2023/10/03 01:18:58;;;;;;;;;8.33;8.33;;;;;25.74;61.15;100611.22;6183371;22;45382;-73
2023/10/03 01:21:25;;;;;;;;;13.00;13.00;;;;;25.71;61.37;100619.56;6210687;22;45339;-74
2023/10/03 01:23:50;;;;;;;;;12.00;11.00;;;;;25.70;61.13;100616.91;6183143;22;45843;-73
2023/10/03 01:26:17;;;;;;;;;13.67;13.00;;;;;25.69;61.91;100609.69;6210833;22;45324;-73
2023/10/03 01:28:43;;;;;;;;;17.00;15.67;;;;;25.60;62.89;100608.31;6183346;22;45336;-73
2023/10/03 01:31:08;;;;;;;;;15.67;14.00;;;;;25.63;62.80;100624.53;6210399;22;45963;-74
2023/10/03 01:33:34;;;;;;;;;17.33;17.33;;;;;25.65;63.93;100617.16;6210329;22;45360;-74
2023/10/03 01:36:01;;;;;;;;;18.00;17.00;;;;;25.59;63.89;100616.56;6210222;22;45420;-74
2023/10/03 01:38:29;;;;;;;;;14.67;14.67;;;;;25.50;65.69;100618.78;6183087;22;45536;-73
2023/10/03 01:41:00;;;;;;;;;16.00;15.00;;;;;25.56;65.21;100614.88;6182161;22;46913;-74
2023/10/03 01:43:26;;;;;;;;;18.00;18.00;;;;;25.45;65.84;100617.25;6210684;22;45357;-73
2023/10/03 01:45:53;;;;;;;;;20.67;19.67;;;;;25.37;65.90;100622.19;6212851;22;45336;-76
2023/10/03 01:48:19;;;;;;;;;15.67;15.67;;;;;25.40;66.14;100622.06;6185888;22;45496;-78
2023/10/03 01:50:44;;;;;;;;;16.00;16.00;;;;;25.38;66.70;100623.97;6213704;22;46239;-76
2023/10/03 01:53:11;;;;;;;;;17.33;17.33;;;;;25.30;67.12;100608.88;6186539;22;45384;-77
2023/10/03 01:55:37;;;;;;;;;18.00;18.00;;;;;25.28;67.04;100620.81;6213323;22;45452;-77
2023/10/03 01:58:04;;;;;;;;;15.00;14.00;;;;;25.29;67.02;100625.31;6211119;22;45370;-76
2023/10/03 02:00:30;;;;;;;;;18.33;17.33;;;;;25.21;67.70;100622.97;6213512;22;45166;-77
2023/10/03 02:03:05;;;;;;;;;18.00;17.00;;;;;25.35;67.89;100623.16;6210840;22;45349;-77
2023/10/03 02:05:34;;;;;;;;;20.33;19.00;;;;;25.21;68.21;100630.19;6186494;22;45443;-77
2023/10/03 02:08:15;;;;;;;;;19.67;19.00;;;;;25.20;69.70;100625.72;6213357;22;45480;-70
2023/10/03 02:10:45;;;;;;;;;18.33;16.00;;;;;25.19;68.91;100621.22;6215849;22;45594;-75
2023/10/03 02:13:18;;;;;;;;;22.00;19.00;;;;;25.15;69.09;100624.09;6216167;22;44930;-75
2023/10/03 02:15:45;;;;;;;;;19.00;16.33;;;;;25.20;68.94;100615.72;6217324;22;45319;-77
2023/10/03 02:18:18;;;;;;;;;17.33;16.00;;;;;25.12;69.72;100612.47;6215984;22;45361;-77
2023/10/03 02:21:03;;;;;;;;;17.67;17.67;;;;;25.33;69.53;100627.81;6189124;22;45391;-76
2023/10/03 02:23:30;;;;;;;;;21.00;21.00;;;;;25.11;70.24;100622.50;6215674;22;45439;-75
2023/10/03 02:26:16;;;;;;;;;22.67;20.00;;;;;25.30;69.62;100636.09;6189551;22;45139;-76
2023/10/03 02:28:42;;;;;;;;;21.33;19.67;;;;;25.01;70.41;100621.19;6215490;22;45360;-77
2023/10/03 02:31:07;;;;;;;;;24.67;21.67;;;;;24.94;70.34;100626.03;6216142;22;44870;-76
2023/10/03 02:33:37;;;;;;;;;21.00;19.00;;;;;25.12;71.06;100632.41;6217157;22;45217;-77
2023/10/03 02:36:04;;;;;;;;;19.33;18.67;;;;;24.87;71.25;100621.81;6215394;22;44741;-77
2023/10/03 02:38:35;;;;;;;;;20.00;19.33;;;;;24.85;71.23;100615.56;6216521;22;44823;-77
2023/10/03 02:41:00;;;;;;;;;16.33;16.33;;;;;24.81;71.49;100608.53;6188711;22;47354;-77
2023/10/03 02:43:27;;;;;;;;;20.33;19.00;;;;;24.87;72.39;100612.78;6216373;22;44702;-75
2023/10/03 02:45:53;;;;;;;;;20.67;18.00;;;;;24.77;72.05;100600.59;6216730;22;44811;-76
2023/10/03 02:48:20;;;;;;;;;17.00;16.67;;;;;24.79;72.15;100613.16;6217389;22;44779;-76
2023/10/03 02:50:47;;;;;;;;;19.00;19.00;;;;;24.82;71.95;100628.44;6184850;22;45455;-74
2023/10/03 02:53:15;;;;;;;;;15.33;14.67;;;;;24.83;71.58;100631.09;6183133;22;45691;-74
2023/10/03 02:55:41;;;;;;;;;16.67;15.00;;;;;24.78;71.53;100635.84;6211253;22;45278;-73
2023/10/03 02:58:08;;;;;;;;;15.00;14.67;;;;;24.78;71.76;100618.66;6184396;22;45582;-73
2023/10/03 03:00:37;;;;;;;;;20.00;17.00;;;;;24.89;71.94;100619.03;6211157;22;45442;-73
2023/10/03 03:03:06;;;;;;;;;16.67;16.67;;;;;24.95;71.65;100622.34;6208577;22;45523;-74
2023/10/03 03:05:35;;;;;;;;;23.67;21.67;;;;;24.95;71.42;100629.63;6209156;22;45396;-74
2023/10/03 03:08:08;;;;;;;;;20.00;19.67;;;;;25.00;71.34;100630.28;6183742;22;45501;-73
2023/10/03 03:10:33;;;;;;;;;17.00;15.00;;;;;24.98;71.21;100634.91;6211017;22;45427;-73
2023/10/03 03:12:59;;;;;;;;;21.67;21.00;;;;;25.02;71.36;100632.94;6210984;22;45415;-74
2023/10/03 03:15:27;;;;;;;;;20.33;18.00;;;;;25.01;71.22;100633.91;6211525;22;45376;-74
2023/10/03 03:17:53;;;;;;;;;19.00;18.00;;;;;24.97;71.39;100640.44;6185010;22;45438;-77
2023/10/03 03:20:26;;;;;;;;;18.00;17.00;;;;;24.99;71.50;100631.25;6212315;22;45549;-78
2023/10/03 03:22:52;;;;;;;;;16.67;16.67;;;;;24.96;71.23;100636.81;6211817;22;45482;-77
2023/10/03 03:25:24;;;;;;;;;19.33;18.00;;;;;24.97;71.34;100646.75;6185693;22;45337;-77
2023/10/03 03:27:53;;;;;;;;;17.33;16.00;;;;;25.11;71.38;100646.09;6212702;22;45364;-77
2023/10/03 03:32:58;;;;;;;;;14.00;13.00;;;;;24.92;70.90;100646.97;6212181;22;45400;-77
2023/10/03 03:35:37;;;;;;;;;13.00;12.67;;;;;25.11;70.36;100648.84;6213293;22;45468;-77
2023/10/03 03:38:05;;;;;;;;;15.00;15.00;;;;;24.87;70.95;100650.88;6185117;22;45282;-76
2023/10/03 03:40:34;;;;;;;;;16.00;14.00;;;;;24.83;71.03;100652.84;6212755;22;45453;-77
2023/10/03 03:43:05;;;;;;;;;12.00;12.00;;;;;24.90;70.61;100650.72;6212759;22;45434;-77
2023/10/03 03:45:31;;;;;;;;;13.00;13.00;;;;;24.79;71.33;100663.94;6213284;22;44681;-77
2023/10/03 03:47:56;;;;;;;;;12.67;12.67;;;;;24.78;70.95;100660.31;6213109;22;45450;-78
2023/10/03 03:50:22;;;;;;;;;17.33;17.00;;;;;24.72;70.81;100663.34;6213360;22;46253;-77
2023/10/03 03:52:52;;;;;;;;;13.67;12.00;;;;;24.75;70.63;100668.66;6185907;22;45501;-76
2023/10/03 03:55:17;;;;;;;;;12.67;12.67;;;;;24.74;70.81;100673.22;6213381;22;45481;-77
2023/10/03 03:57:45;;;;;;;;;12.00;12.00;;;;;24.73;71.11;100676.00;6185656;22;45280;-78
2023/10/03 04:00:22;;;;;;;;;11.00;11.00;;;;;24.74;70.58;100680.47;6212987;22;45272;-77
2023/10/03 04:02:48;;;;;;;;;11.00;11.00;;;;;24.64;70.66;100677.31;6210770;22;45359;-76
2023/10/03 04:05:17;;;;;;;;;8.67;8.33;;;;;24.67;70.63;100685.31;6211967;22;45768;-77
2023/10/03 04:07:42;;;;;;;;;12.33;10.67;;;;;24.64;70.84;100681.84;6212945;22;45533;-77
2023/10/03 04:10:12;;;;;;;;;10.00;10.00;;;;;24.67;70.92;100687.16;6212061;22;45848;-76
2023/10/03 04:12:44;;;;;;;;;11.00;11.00;;;;;24.65;70.27;100678.19;6211703;22;45459;-77
2023/10/03 04:15:18;;;;;;;;;9.33;9.33;;;;;24.79;70.27;100680.28;6184137;22;45365;-76
2023/10/03 04:17:46;;;;;;;;;11.00;10.00;;;;;24.65;70.45;100700.81;6211686;22;45410;-77
2023/10/03 04:20:20;;;;;;;;;10.33;10.33;;;;;24.77;70.52;100699.38;6212217;22;45373;-78
2023/10/03 04:22:47;;;;;;;;;11.00;10.67;;;;;24.68;70.17;100695.25;6210630;22;45373;-76
2023/10/03 04:25:14;;;;;;;;;11.00;9.00;;;;;24.59;70.19;100711.97;6213545;22;45333;-76
2023/10/03 04:27:40;;;;;;;;;10.33;8.67;;;;;24.60;70.15;100721.00;6212353;22;45352;-76
2023/10/03 04:30:13;;;;;;;;;8.00;8.00;;;;;24.75;70.33;100715.75;6184667;22;46938;-77
2023/10/03 04:32:38;;;;;;;;;7.33;6.33;;;;;24.57;70.32;100715.72;6184931;22;45457;-76
2023/10/03 04:35:05;;;;;;;;;9.67;9.67;;;;;24.57;70.54;100724.75;6211349;22;45408;-75
2023/10/03 04:37:31;;;;;;;;;8.67;8.67;;;;;24.58;70.49;100726.50;6184532;22;45490;-77
2023/10/03 04:39:56;;;;;;;;;9.33;9.33;;;;;24.61;71.17;100720.06;6184421;22;46581;-77
2023/10/03 04:42:22;;;;;;;;;10.00;10.00;;;;;24.60;70.85;100734.59;6211334;22;45649;-74
2023/10/03 04:44:47;;;;;;;;;8.33;8.33;;;;;24.53;70.95;100726.72;6208806;22;45458;-73
2023/10/03 04:47:13;;;;;;;;;15.00;12.00;;;;;24.56;71.23;100720.25;6210982;22;45419;-73
2023/10/03 04:49:38;;;;;;;;;7.33;6.67;;;;;24.55;71.11;100732.97;6211052;22;47583;-73
2023/10/03 04:52:07;;;;;;;;;10.00;10.00;;;;;24.72;71.29;100729.50;6210722;22;45358;-73
2023/10/03 04:54:33;;;;;;;;;8.67;8.67;;;;;24.62;70.98;100740.84;6211396;22;45684;-73
2023/10/03 04:56:59;;;;;;;;;10.00;10.00;;;;;24.60;71.16;100737.31;6210858;22;45350;-73
2023/10/03 04:59:25;;;;;;;;;10.67;10.67;;;;;24.61;70.93;100736.38;6210574;22;45468;-74
2023/10/03 05:01:50;;;;;;;;;11.00;11.00;;;;;24.57;71.82;100729.31;6183052;22;45582;-73
2023/10/03 05:04:16;;;;;;;;;10.00;10.00;;;;;24.52;71.31;100730.41;6208283;22;45373;-73
2023/10/03 05:06:43;;;;;;;;;13.00;11.33;;;;;24.57;71.06;100729.31;6184162;22;45564;-74
2023/10/03 05:09:08;;;;;;;;;10.00;8.33;;;;;24.59;71.11;100739.16;6210729;22;46422;-74
2023/10/03 05:11:34;;;;;;;;;12.33;10.00;;;;;24.60;71.19;100740.03;6210766;22;45363;-74
2023/10/03 05:14:00;;;;;;;;;6.67;5.67;;;;;24.54;70.60;100724.88;6210789;22;45456;-74
2023/10/03 05:16:25;;;;;;;;;11.33;9.67;;;;;24.61;71.25;100739.09;6210643;22;45480;-74
2023/10/03 05:18:51;;;;;;;;;10.33;10.33;;;;;24.54;71.46;100752.06;6208943;22;46867;-74
2023/10/03 05:21:16;;;;;;;;;11.00;11.00;;;;;24.51;71.87;100755.81;6211149;22;45391;-72
2023/10/03 05:23:41;;;;;;;;;7.33;6.00;;;;;24.46;72.04;100755.09;6211390;22;45345;-74
2023/10/03 05:26:07;;;;;;;;;10.00;10.00;;;;;24.40;72.85;100749.03;6183882;22;45727;-73
2023/10/03 05:28:34;;;;;;;;;9.33;8.00;;;;;24.31;72.43;100737.59;6208142;22;47366;-73
2023/10/03 05:30:59;;;;;;;;;10.67;8.67;;;;;24.36;72.94;100756.47;6183379;22;45281;-73
2023/10/03 05:33:25;;;;;;;;;8.00;7.00;;;;;24.36;73.16;100761.88;6208469;22;45423;-73
2023/10/03 05:35:50;;;;;;;;;10.00;10.00;;;;;24.36;73.19;100767.34;6207406;22;45533;-73
2023/10/03 05:38:16;;;;;;;;;9.33;8.33;;;;;24.36;73.05;100775.47;6182984;22;46916;-74
2023/10/03 05:40:43;;;;;;;;;11.33;8.67;;;;;24.36;72.96;100787.22;6210299;22;45451;-74
2023/10/03 05:43:08;;;;;;;;;9.33;9.33;;;;;24.33;73.68;100767.44;6208066;22;45672;-72
2023/10/03 05:45:35;;;;;;;;;9.00;7.00;;;;;24.35;73.47;100776.41;6210747;22;45348;-74
2023/10/03 05:48:00;;;;;;;;;8.00;8.00;;;;;24.25;73.47;100777.75;6209526;22;45399;-74
2023/10/03 05:50:26;;;;;;;;;9.33;9.33;;;;;24.23;74.24;100787.81;6209645;22;45301;-73
2023/10/03 05:52:51;;;;;;;;;11.33;9.00;;;;;24.23;73.71;100776.94;6210433;22;45273;-74
2023/10/03 05:55:25;;;;;;;;;11.00;8.00;;;;;24.23;73.89;100771.50;6210500;22;45399;-74
2023/10/03 05:57:50;;;;;;;;;6.50;6.50;;;;;24.17;73.57;100784.38;6182447;22;45420;-73
2023/10/03 06:00:18;;;;;;;;;7.75;7.75;;;;;24.24;73.79;100809.50;6184425;22;45366;-77
2023/10/03 06:02:47;;;;;;;;;8.00;8.00;;;;;24.23;74.03;100802.28;6185613;22;45365;-77
2023/10/03 06:05:14;;;;;;;;;7.00;7.00;;;;;24.21;74.13;100793.31;6212861;22;45342;-79
2023/10/03 06:07:41;;;;;;;;;7.00;7.00;;;;;24.14;74.68;100779.09;6162056;22;46884;-79
2023/10/03 06:10:10;;;;;;;;;7.75;7.75;;;;;24.17;74.30;100769.91;6214048;22;45353;-79
2023/10/03 06:12:36;;;;;;;;;10.00;8.00;;;;;24.08;74.23;100754.91;6214543;22;45513;-79
2023/10/03 06:15:03;;;;;;;;;9.00;9.00;;;;;24.06;74.48;100766.78;6214390;22;45768;-80
2023/10/03 06:17:31;;;;;;;;;7.67;7.33;;;;;24.21;74.72;100774.28;6185803;22;47232;-79
2023/10/03 06:19:57;;;;;;;;;9.33;9.33;;;;;24.05;74.79;100776.75;6186612;22;45370;-80
2023/10/03 06:22:22;;;;;;;;;8.33;8.33;;;;;24.04;75.22;100765.97;6187818;22;45292;-79
2023/10/03 06:24:49;;;;;;;;;10.00;8.00;;;;;24.02;75.07;100763.31;6214679;22;45292;-78
2023/10/03 06:27:14;;;;;;;;;7.00;7.00;;;;;24.04;75.03;100768.69;6212554;22;45357;-77
2023/10/03 06:29:40;;;;;;;;;6.00;6.00;;;;;24.01;75.61;100780.53;6184817;22;45786;-77
2023/10/03 06:32:06;;;;;;;;;10.67;10.67;;;;;24.00;75.93;100789.66;6194612;22;45484;-78
2023/10/03 06:34:32;;;;;;;;;7.33;7.33;;;;;23.92;76.58;100781.81;6187992;22;45829;-78
2023/10/03 06:36:57;;;;;;;;;12.00;10.00;;;;;23.97;75.76;100784.34;6213049;22;45269;-78
2023/10/03 06:39:24;;;;;;;;;8.00;8.00;;;;;23.94;77.02;100779.03;6186450;22;44733;-78
2023/10/03 06:41:50;;;;;;;;;9.67;9.67;;;;;23.91;77.46;100784.59;6213334;22;44760;-78
2023/10/03 06:44:15;;;;;;;;;9.00;9.00;;;;;23.82;76.80;100775.00;6214553;22;45239;-79
2023/10/03 06:46:42;;;;;;;;;7.00;6.33;;;;;23.91;77.23;100790.00;6186190;22;47096;-78
2023/10/03 06:49:10;;;;;;;;;6.25;4.75;;;;;23.88;78.19;100790.16;6187156;22;44765;-80
2023/10/03 06:51:37;;;;;;;;;10.50;8.50;;;;;23.90;78.11;100794.56;6215240;22;45423;-76
2023/10/03 06:54:03;;;;;;;;;8.33;8.00;;;;;23.89;78.39;100791.91;6188742;22;45571;-72
2023/10/03 06:56:32;;;;;;;;;6.33;6.33;;;;;23.83;78.56;100809.34;6185732;22;45395;-71
2023/10/03 06:58:58;;;;;;;;;7.50;7.50;;;;;23.80;78.60;100819.47;6187458;22;44733;-74
2023/10/03 07:01:24;;;;;;;;;9.67;9.67;;;;;23.82;78.48;100837.47;6190360;22;45393;-75
2023/10/03 07:03:53;;;;;;;;;8.00;7.00;;;;;23.82;78.85;100844.72;6209987;22;44875;-77
2023/10/03 07:06:37;;;;;;;;;8.00;8.00;;;;;23.97;79.50;100857.69;6184700;23;46646;-75
2023/10/03 07:09:08;;;;;;;;;7.33;7.00;;;;;23.78;80.44;100864.81;6184329;23;44882;-75
2023/10/03 07:11:36;;;;;;;;;8.00;8.00;;;;;23.80;78.97;100846.63;6185231;23;44827;-73
2023/10/03 07:14:01;;;;;;;;;10.00;10.00;;;;;23.87;78.74;100873.44;6184819;23;44791;-78
2023/10/03 07:16:41;;;;;;;;;9.33;7.67;;;;;24.11;79.57;100862.56;6157415;23;45466;-76
2023/10/03 07:19:10;;;;;;;;;8.67;8.67;;;;;24.03;82.23;100871.03;6182487;23;45172;-76
2023/10/03 07:21:36;;;;;;;;;10.67;10.67;;;;;23.82;83.15;100882.75;6182795;23;45080;-72
2023/10/03 07:24:02;;;;;;;;;7.00;7.00;;;;;23.73;86.54;100873.97;6183976;23;45274;-72
2023/10/03 07:26:28;;;;;;;;;5.00;5.00;;;;;23.62;85.27;100886.19;6183535;23;45016;-71
2023/10/03 07:28:58;;;;;;;;;12.00;11.00;;;;;23.61;85.28;100896.13;6185614;23;44792;-71
2023/10/03 07:31:24;;;;;;;;;10.00;10.00;;;;;23.60;85.29;100905.25;6206118;22;44891;-71
2023/10/03 07:33:52;;;;;;;;;9.00;9.00;;;;;23.57;85.63;100899.91;6183329;23;45176;-70
2023/10/03 07:36:17;;;;;;;;;11.33;7.67;;;;;23.56;84.74;100884.59;6205629;22;45975;-72
2023/10/03 07:38:45;;;;;;;;;10.33;10.33;;;;;23.60;85.83;100878.09;6183230;23;44752;-72
2023/10/03 07:41:15;;;;;;;;;10.67;10.33;;;;;23.57;86.82;100870.06;6183019;23;44721;-71
2023/10/03 07:43:41;;;;;;;;;11.00;11.00;;;;;23.62;85.82;100869.91;6181206;23;45435;-72
2023/10/03 07:46:06;;;;;;;;;9.33;9.00;;;;;23.66;85.72;100887.84;6194412;23;46446;-75
2023/10/03 07:48:32;;;;;;;;;7.67;7.67;;;;;23.71;84.84;100878.59;6201549;22;44820;-74
2023/10/03 07:51:05;;;;;;;;;7.00;7.00;;;;;23.81;84.24;100875.53;6198145;23;44783;-75
2023/10/03 07:53:36;;;;;;;;;11.00;7.67;;;;;23.76;86.21;100884.72;6193912;23;44868;-75
2023/10/03 07:56:01;;;;;;;;;11.00;10.00;;;;;23.76;85.51;100901.00;6197902;23;46132;-76
2023/10/03 07:58:32;;;;;;;;;8.00;8.00;;;;;23.74;85.13;100902.91;6189200;23;44971;-72
2023/10/03 08:00:58;;;;;;;;;8.00;8.00;;;;;23.80;85.11;100922.66;6180909;23;44760;-71
2023/10/03 08:03:28;;;;;;;;;9.00;9.00;;;;;23.79;84.28;100923.59;6184839;22;45502;-71
2023/10/03 08:05:57;;;;;;;;;7.67;7.33;;;;;23.81;84.86;100935.28;6211887;22;45135;-73
2023/10/03 08:08:22;;;;;;;;;6.67;6.00;;;;;23.79;84.24;100948.03;6211118;22;44825;-73
2023/10/03 08:10:49;;;;;;;;;7.67;7.67;;;;;23.73;84.10;100982.59;6212444;22;44701;-72
2023/10/03 08:13:17;;;;;;;;;4.00;4.00;;;;;23.25;92.45;100985.22;6213744;22;44776;-73
2023/10/03 08:15:44;;;;;;;;;6.00;5.50;;;;;22.68;100.00;100996.13;6200098;22;45368;-73
2023/10/03 08:18:17;;;;;;;;;5.00;5.00;;;;;22.09;100.00;101005.13;6192116;22;44877;-70
2023/10/03 08:20:43;;;;;;;;;6.33;6.33;;;;;21.83;100.00;101005.88;6211601;22;45384;-71
2023/10/03 08:23:09;;;;;;;;;6.67;6.33;;;;;21.69;100.00;101017.13;6213683;22;45463;-72
2023/10/03 08:25:35;;;;;;;;;6.33;6.33;;;;;21.59;100.00;101037.22;6187004;22;46824;-74
2023/10/03 08:28:01;;;;;;;;;8.00;7.00;;;;;21.48;100.00;101040.22;6212784;22;45285;-71
2023/10/03 08:30:30;;;;;;;;;9.00;7.67;;;;;21.37;100.00;101039.59;6212884;22;45344;-72
2023/10/03 08:33:01;;;;;;;;;4.67;4.67;;;;;21.36;100.00;101052.22;6213100;22;44897;-72
2023/10/03 08:35:37;;;;;;;;;8.00;7.00;;;;;21.37;100.00;101058.53;6212346;22;45040;-73
2023/10/03 08:38:13;;;;;;;;;5.00;5.00;;;;;21.75;100.00;101064.75;6211988;22;44772;-73
2023/10/03 08:40:49;;;;;;;;;5.00;5.00;;;;;21.86;100.00;101064.50;6213010;22;45340;-71
2023/10/03 08:43:15;;;;;;;;;5.00;4.00;;;;;21.70;100.00;101064.91;6209705;22;45253;-72
2023/10/03 08:45:43;;;;;;;;;5.67;5.67;;;;;21.86;100.00;101075.31;6209706;22;47806;-71
2023/10/03 08:48:10;;;;;;;;;7.00;7.00;;;;;21.85;100.00;101095.19;6185868;22;44775;-71
2023/10/03 08:50:46;;;;;;;;;3.00;3.00;;;;;21.99;100.00;101095.69;6212628;22;44816;-71
2023/10/03 08:53:16;;;;;;;;;6.67;6.67;;;;;21.92;100.00;101099.53;6209824;22;45483;-71
2023/10/03 08:55:52;;;;;;;;;6.00;6.00;;;;;21.87;99.90;101096.03;6211158;22;46141;-71
2023/10/03 08:58:18;;;;;;;;;7.67;4.67;;;;;21.99;99.08;101103.81;6184996;22;44823;-72
2023/10/03 09:00:50;;;;;;;;;6.00;4.33;;;;;22.26;96.57;101114.84;6185371;22;45342;-72
2023/10/03 09:03:29;;;;;;;;;5.00;4.33;;;;;22.45;95.22;101126.94;6210453;22;44834;-71
2023/10/03 09:05:58;;;;;;;;;6.00;4.67;;;;;22.16;96.03;101125.03;6212891;22;45398;-72
2023/10/03 09:08:25;;;;;;;;;3.00;3.00;;;;;22.30;93.67;101135.50;6188660;22;44847;-73
2023/10/03 09:10:57;;;;;;;;;4.00;4.00;;;;;22.25;90.32;101132.06;6214600;22;44840;-73
2023/10/03 09:13:24;;;;;;;;;3.75;2.00;;;;;22.40;91.12;101133.41;6215226;22;44788;-72
2023/10/03 09:15:59;;;;;;;;;3.00;3.00;;;;;22.52;89.52;101144.81;6213849;22;45482;-72
2023/10/03 09:18:26;;;;;;;;;4.00;2.00;;;;;22.60;88.20;101154.53;6212499;22;45301;-72
2023/10/03 09:20:52;;;;;;;;;2.33;2.33;;;;;22.70;87.92;101158.75;6185426;22;44829;-71
2023/10/03 09:23:17;;;;;;;;;3.00;3.00;;;;;22.88;87.68;101162.72;6213909;22;44765;-72
2023/10/03 09:25:52;;;;;;;;;2.00;2.00;;;;;23.05;86.90;101170.41;6214496;22;44989;-73
2023/10/03 09:28:35;;;;;;;;;2.33;2.33;;;;;22.90;81.69;101190.69;6213050;22;44749;-72
2023/10/03 09:31:02;;;;;;;;;2.67;2.67;;;;;22.80;83.24;101172.91;6213018;22;45285;-72
2023/10/03 09:33:28;;;;;;;;;5.67;4.00;;;;;22.62;83.01;101179.78;6185375;22;45258;-73
2023/10/03 09:36:03;;;;;;;;;4.00;4.00;;;;;22.75;82.49;101178.50;6184236;22;45029;-72
2023/10/03 09:38:42;;;;;;;;;1.00;1.00;;;;;22.65;82.77;101185.13;6212785;22;44852;-72
2023/10/03 09:41:16;;;;;;;;;2.50;2.50;;;;;22.51;83.29;101201.78;6212606;22;45356;-72
2023/10/03 09:43:46;;;;;;;;;4.00;1.75;;;;;22.76;83.67;101208.28;6184413;22;44890;-71
2023/10/03 09:46:12;;;;;;;;;2.25;2.00;;;;;22.70;82.88;101204.84;6184241;22;47021;-71
2023/10/03 09:48:38;;;;;;;;;2.00;2.00;;;;;22.66;81.75;101214.91;6212841;22;45188;-70
2023/10/03 09:51:05;;;;;;;;;2.00;2.00;;;;;22.78;83.24;101224.47;6185370;22;44811;-72
2023/10/03 09:53:37;;;;;;;;;3.00;3.00;;;;;23.16;82.22;101226.09;6185687;22;45337;-72
2023/10/03 09:56:08;;;;;;;;;3.50;2.75;;;;;23.14;80.83;101232.50;6186244;22;45013;-71
2023/10/03 09:58:33;;;;;;;;;2.00;2.00;;;;;23.22;82.53;101252.16;6184874;22;45383;-74
2023/10/03 10:00:59;;;;;;;;;4.00;4.00;;;;;23.41;79.47;101240.72;6184073;22;44824;-72
2023/10/03 10:03:33;;;;;;;;;5.50;4.00;;;;;23.34;76.98;101251.78;6181921;22;44754;-72
2023/10/03 10:06:19;;;;;;;;;2.00;2.00;;;;;23.18;76.75;101250.47;6186252;22;46638;-70
2023/10/03 10:08:57;;;;;;;;;2.25;2.25;;;;;23.37;77.85;101261.66;6210026;22;44846;-73
2023/10/03 10:11:26;;;;;;;;;3.00;3.00;;;;;23.12;74.44;101256.09;6186163;22;44768;-72
2023/10/03 10:14:41;;;;;;;;;3.00;3.00;;;;;23.36;74.48;101260.75;6185768;22;45409;-73
2023/10/03 10:17:10;;;;;;;;;1.67;1.67;;;;;23.11;74.71;101265.19;6212129;22;46974;-71
2023/10/03 10:20:09;;;;;;;;;4.00;3.00;;;;;23.49;74.86;101268.50;6210119;22;44720;-72
2023/10/03 10:22:58;;;;;;;;;2.00;2.00;;;;;23.64;73.20;101264.44;6210735;22;45510;-72
2023/10/03 10:25:38;;;;;;;;;2.33;2.00;;;;;23.60;74.13;101276.34;6211405;22;45236;-72
2023/10/03 10:28:42;;;;;;;;;2.00;2.00;;;;;23.89;72.11;101275.44;6215374;22;46109;-71
2023/10/03 10:31:11;;;;;;;;;3.00;2.00;;;;;24.20;73.53;101279.81;6214529;22;44800;-72
2023/10/03 10:33:36;;;;;;;;;4.67;3.67;;;;;24.27;71.03;101292.28;6212505;22;44894;-72
2023/10/03 10:36:10;;;;;;;;;4.00;2.00;;;;;24.31;70.39;101293.94;6214724;22;44815;-73
2023/10/03 10:38:35;;;;;;;;;5.33;4.67;;;;;24.25;69.27;101302.31;6185325;22;45290;-72
2023/10/03 10:44:09;;;;;;;;;4.67;4.00;;;;;24.40;64.83;101323.56;6215771;22;44750;-72
2023/10/03 10:46:39;;;;;;;;;4.67;4.67;;;;;24.25;68.58;101324.06;6212091;22;44789;-72
2023/10/03 10:49:30;;;;;;;;;6.00;3.00;;;;;24.35;67.58;101320.09;6211500;22;45197;-71
2023/10/03 10:52:09;;;;;;;;;4.33;4.33;;;;;24.27;66.59;101327.63;6175053;22;44875;-73
2023/10/03 10:54:38;;;;;;;;;5.00;5.00;;;;;24.07;67.20;101334.59;6214422;22;45251;-78
2023/10/03 10:57:06;;;;;;;;;5.00;5.00;;;;;24.04;67.07;101342.88;6213248;22;45401;-74
2023/10/03 10:59:35;;;;;;;;;4.33;4.00;;;;;23.99;67.45;101344.81;6210697;22;45445;-74
2023/10/03 11:02:07;;;;;;;;;6.00;6.00;;;;;24.24;67.52;101353.09;6210905;22;45400;-74
2023/10/03 11:04:34;;;;;;;;;4.50;4.50;;;;;24.20;68.46;101350.50;6202671;22;45344;-74
2023/10/03 11:07:00;;;;;;;;;4.00;4.00;;;;;24.25;66.96;101348.53;6188872;23;45620;-75
2023/10/03 11:09:26;;;;;;;;;4.25;4.25;;;;;24.46;67.75;101347.81;6181648;23;45364;-73
2023/10/03 11:11:55;;;;;;;;;5.33;4.33;;;;;24.77;65.53;101354.94;6185452;23;45344;-76
2023/10/03 11:14:26;;;;;;;;;6.00;4.50;;;;;24.97;64.73;101348.78;6178918;23;45780;-74
2023/10/03 11:16:51;;;;;;;;;3.75;3.00;;;;;24.71;64.71;101353.31;6214979;22;45344;-73
2023/10/03 11:19:17;;;;;;;;;3.00;3.00;;;;;24.87;64.36;101364.53;6182642;23;45760;-74
2023/10/03 11:21:42;;;;;;;;;4.00;4.00;;;;;24.78;61.88;101359.41;6179782;23;45461;-72
2023/10/03 11:24:18;;;;;;;;;6.67;5.67;;;;;24.83;61.47;101365.59;6203775;22;45407;-73
2023/10/03 11:26:49;;;;;;;;;6.00;6.00;;;;;24.63;62.34;101368.13;6190492;22;44848;-73
2023/10/03 11:29:53;;;;;;;;;4.00;4.00;;;;;24.83;62.82;101373.75;6178928;23;46952;-74